Time;durP1;ratioP1;P1;durP2;ratioP2;P2;SDS_P1;SDS_P2;PMS_P1;PMS_P2;Temp;Humidity;BMP_temperature;BMP_pressure;BME280_temperature;BME280_humidity;BME280_pressure;Samples;Min_cycle;Max_cycle;Signal;HPM_P1;HPM_P2
2022/04/04 00:02:20;;;;;;;13.85;10.48;;;-0.60;99.90;;;;;;5020757;28;20213;-83
2022/04/04 00:04:47;;;;;;;11.18;9.43;;;-0.60;99.90;;;;;;5035865;28;20229;-84
2022/04/04 00:07:14;;;;;;;11.98;10.45;;;-0.60;99.90;;;;;;5040801;28;20209;-85
2022/04/04 00:09:41;;;;;;;10.60;9.55;;;-0.60;99.90;;;;;;5026443;28;20211;-82
2022/04/04 00:12:09;;;;;;;12.32;9.95;;;-0.60;99.90;;;;;;5020224;28;20211;-85
2022/04/04 00:14:36;;;;;;;13.55;11.15;;;-0.60;99.90;;;;;;5033413;28;20707;-84
2022/04/04 00:17:03;;;;;;;11.52;10.25;;;-0.70;99.90;;;;;;5038760;28;20226;-85
2022/04/04 00:19:31;;;;;;;12.32;9.25;;;-0.70;99.90;;;;;;5021157;28;20207;-83
2022/04/04 00:21:58;;;;;;;11.80;9.50;;;-0.60;99.90;;;;;;5022544;28;20215;-83
2022/04/04 00:24:25;;;;;;;10.32;8.75;;;-0.70;99.90;;;;;;5040701;28;20230;-84
2022/04/04 00:26:52;;;;;;;12.65;9.75;;;-0.60;99.90;;;;;;5040609;28;20298;-83
2022/04/04 00:29:19;;;;;;;12.07;10.88;;;-0.60;99.90;;;;;;5021277;28;20203;-84
2022/04/04 00:31:46;;;;;;;13.32;10.02;;;-0.60;99.90;;;;;;5021104;28;20206;-84
2022/04/04 00:34:13;;;;;;;10.85;9.60;;;-0.70;99.90;;;;;;5039412;28;20234;-84
2022/04/04 00:36:43;;;;;;;13.38;10.55;;;-0.70;99.90;;;;;;5040985;28;20410;-84
2022/04/04 00:39:09;;;;;;;12.00;10.63;;;-0.60;99.90;;;;;;5022624;28;20211;-85
2022/04/04 00:41:36;;;;;;;13.13;10.45;;;-0.70;99.90;;;;;;5020748;28;20206;-84
2022/04/04 00:44:04;;;;;;;12.57;11.05;;;-0.70;99.90;;;;;;5037791;28;20202;-84
2022/04/04 00:46:31;;;;;;;10.98;9.95;;;-0.70;99.90;;;;;;5033058;28;20203;-85
2022/04/04 00:48:58;;;;;;;12.77;11.10;;;-0.60;99.90;;;;;;5019827;28;20210;-84
2022/04/04 00:51:24;;;;;;;14.65;9.95;;;-0.70;99.90;;;;;;5025185;28;20198;-83
2022/04/04 00:53:52;;;;;;;10.50;9.13;;;-0.70;99.90;;;;;;5039655;28;20206;-84
2022/04/04 00:56:19;;;;;;;17.52;11.05;;;-0.70;99.90;;;;;;5034925;28;20218;-83
2022/04/04 00:58:46;;;;;;;13.55;9.95;;;-0.80;99.90;;;;;;5020389;28;20227;-82
2022/04/04 01:01:13;;;;;;;9.98;9.00;;;-0.70;99.90;;;;;;5023775;28;20198;-84
2022/04/04 01:03:40;;;;;;;10.60;9.63;;;-0.70;99.90;;;;;;5040370;28;20218;-84
2022/04/04 01:06:07;;;;;;;10.65;9.65;;;-0.70;99.90;;;;;;5038480;28;20230;-82
2022/04/04 01:08:33;;;;;;;9.55;8.63;;;-0.70;99.90;;;;;;5020061;28;20227;-84
2022/04/04 01:11:01;;;;;;;11.05;9.65;;;-0.80;99.90;;;;;;5021011;28;20206;-84
2022/04/04 01:13:28;;;;;;;10.27;8.57;;;-0.70;99.90;;;;;;5041439;28;20210;-84
2022/04/04 01:15:55;;;;;;;10.95;9.93;;;-0.70;99.90;;;;;;5034145;28;20241;-83
2022/04/04 01:18:22;;;;;;;10.68;9.32;;;-0.60;99.90;;;;;;5020734;28;20227;-83
2022/04/04 01:20:49;;;;;;;14.43;10.55;;;-0.60;99.90;;;;;;5021306;28;20711;-83
2022/04/04 01:23:23;;;;;;;12.63;11.43;;;-0.60;99.90;;;;;;5020735;28;20218;-84
2022/04/04 01:25:51;;;;;;;14.65;9.95;;;-0.60;99.90;;;;;;5028318;28;20226;-84
2022/04/04 01:28:19;;;;;;;12.48;9.30;;;-0.50;99.90;;;;;;5040489;28;20202;-84
2022/04/04 01:30:49;;;;;;;11.15;10.15;;;-0.60;99.90;;;;;;5031370;28;20286;-83
2022/04/04 01:33:16;;;;;;;10.80;9.75;;;-0.60;99.90;;;;;;5022245;28;20672;-85
2022/04/04 01:35:43;;;;;;;11.00;8.73;;;-0.60;99.90;;;;;;5028544;28;20590;-84
2022/04/04 01:38:10;;;;;;;10.23;9.23;;;-0.60;99.90;;;;;;5041616;28;20607;-84
2022/04/04 01:40:37;;;;;;;9.80;8.80;;;-0.60;99.90;;;;;;5035259;28;20206;-84
2022/04/04 01:43:05;;;;;;;9.23;8.00;;;-0.60;99.90;;;;;;5021915;28;20207;-82
2022/04/04 01:48:16;;;;;;;10.73;9.38;;;-0.60;99.90;;;;;;5040469;28;20217;-83
2022/04/04 01:50:43;;;;;;;13.02;8.80;;;-0.60;99.90;;;;;;5034604;28;20196;-84
2022/04/04 01:53:29;;;;;;;11.98;6.80;;;-0.60;99.90;;;;;;5020660;28;20213;-84
2022/04/04 01:55:59;;;;;;;10.05;8.55;;;-0.60;99.90;;;;;;5038432;28;20249;-83
2022/04/04 01:58:27;;;;;;;9.15;7.03;;;-0.70;99.90;;;;;;5039839;28;20598;-84
2022/04/04 02:00:56;;;;;;;10.05;7.90;;;-0.70;99.90;;;;;;5022865;28;20301;-83
2022/04/04 02:03:23;;;;;;;9.70;8.05;;;-0.70;99.90;;;;;;5020917;28;20230;-84
2022/04/04 02:05:50;;;;;;;11.20;8.18;;;-0.70;99.90;;;;;;5037314;28;20247;-82
2022/04/04 02:08:17;;;;;;;10.60;8.60;;;-0.70;99.90;;;;;;5041226;28;20208;-84
2022/04/04 02:10:44;;;;;;;13.23;9.20;;;-0.70;99.90;;;;;;5024366;28;20578;-82
2022/04/04 02:13:11;;;;;;;7.50;6.78;;;-0.70;99.90;;;;;;5027058;28;20211;-84
2022/04/04 02:15:39;;;;;;;9.93;7.13;;;-0.70;99.90;;;;;;5027360;28;20227;-84
2022/04/04 02:18:06;;;;;;;9.38;8.45;;;-0.80;99.90;;;;;;5025971;28;20661;-84
2022/04/04 02:20:33;;;;;;;9.27;8.32;;;-0.70;99.90;;;;;;5026792;28;20206;-83
2022/04/04 02:23:00;;;;;;;9.48;8.00;;;-0.70;99.90;;;;;;5030065;28;20207;-83
2022/04/04 02:25:27;;;;;;;10.15;8.30;;;-0.80;99.90;;;;;;5046363;28;20233;-84
2022/04/04 02:27:54;;;;;;;7.57;6.93;;;-0.80;99.90;;;;;;5045272;28;20202;-82
2022/04/04 02:30:21;;;;;;;11.13;8.93;;;-0.80;99.90;;;;;;5027556;28;20217;-86
2022/04/04 02:32:49;;;;;;;10.90;8.27;;;-0.80;99.90;;;;;;5027766;28;20207;-82
2022/04/04 02:35:16;;;;;;;7.50;6.80;;;-0.80;99.90;;;;;;5027566;28;20231;-85
2022/04/04 02:37:43;;;;;;;9.68;7.70;;;-0.70;99.90;;;;;;5027303;28;20290;-82
2022/04/04 02:40:11;;;;;;;9.57;8.55;;;-0.80;99.90;;;;;;5028210;28;20202;-83
2022/04/04 02:42:38;;;;;;;10.20;7.85;;;-0.80;99.90;;;;;;5028252;28;20214;-83
2022/04/04 02:45:06;;;;;;;6.70;6.00;;;-1.00;99.90;;;;;;5028154;28;20237;-82
2022/04/04 02:47:33;;;;;;;8.52;7.63;;;-0.90;99.90;;;;;;5027272;28;20218;-83
2022/04/04 02:50:01;;;;;;;10.38;9.15;;;-0.90;99.90;;;;;;5027048;28;20293;-85
2022/04/04 02:52:28;;;;;;;13.52;9.43;;;-0.90;99.90;;;;;;5027881;28;20195;-83
2022/04/04 02:54:55;;;;;;;9.70;8.73;;;-0.90;99.90;;;;;;5024460;28;20237;-83
2022/04/04 02:57:21;;;;;;;12.93;7.57;;;-0.90;99.90;;;;;;5027273;28;20199;-85
2022/04/04 02:59:48;;;;;;;10.30;8.13;;;-0.90;99.90;;;;;;5027165;28;20222;-85
2022/04/04 03:02:15;;;;;;;7.50;6.90;;;-0.90;99.90;;;;;;5031367;28;20211;-84
2022/04/04 03:04:42;;;;;;;9.75;8.70;;;-0.90;99.90;;;;;;5047616;28;20248;-84
2022/04/04 03:07:10;;;;;;;7.55;6.70;;;-0.90;99.90;;;;;;5048456;28;20206;-83
2022/04/04 03:09:38;;;;;;;8.98;7.70;;;-0.90;99.90;;;;;;5048107;28;20213;-84
2022/04/04 03:12:06;;;;;;;11.00;9.98;;;-0.90;99.90;;;;;;5047059;28;20207;-82
2022/04/04 03:14:33;;;;;;;13.20;8.25;;;-1.00;99.90;;;;;;5062842;22;20238;31
2022/04/04 03:16:59;;;;;;;8.65;7.78;;;-0.90;99.90;;;;;;4978473;28;20246;-81
2022/04/04 03:19:27;;;;;;;8.95;8.05;;;-1.00;99.90;;;;;;4980825;28;20228;-81
2022/04/04 03:21:56;;;;;;;9.88;8.70;;;-1.00;99.90;;;;;;4980541;28;20585;-81
2022/04/04 03:24:24;;;;;;;10.52;8.48;;;-1.00;99.90;;;;;;5000944;28;20204;-81
2022/04/04 03:26:51;;;;;;;9.38;7.90;;;-1.10;99.90;;;;;;4969991;28;20205;-80
2022/04/04 03:29:17;;;;;;;9.80;8.88;;;-1.10;99.90;;;;;;4962007;29;20201;-81
2022/04/04 03:31:44;;;;;;;10.13;9.15;;;-1.20;99.90;;;;;;4970380;28;20207;-81
2022/04/04 03:34:11;;;;;;;10.32;9.32;;;-1.20;99.90;;;;;;4981217;28;20704;-81
2022/04/04 03:36:38;;;;;;;11.85;10.75;;;-1.20;99.90;;;;;;4973252;28;20224;-81
2022/04/04 03:39:05;;;;;;;11.05;9.27;;;-1.20;99.90;;;;;;4961408;28;20584;-80
2022/04/04 03:41:33;;;;;;;10.75;8.98;;;-1.20;99.90;;;;;;4967260;28;20204;-81
2022/04/04 03:44:01;;;;;;;10.43;8.65;;;-1.40;99.90;;;;;;4981702;28;20212;-80
2022/04/04 03:46:28;;;;;;;11.23;9.45;;;-1.40;99.90;;;;;;4976304;28;20221;-81
2022/04/04 03:48:54;;;;;;;11.82;9.93;;;-1.40;99.90;;;;;;4960626;29;20209;-80
2022/04/04 03:51:21;;;;;;;8.15;7.45;;;-1.40;99.90;;;;;;4960069;29;20235;-80
2022/04/04 03:53:48;;;;;;;14.43;8.45;;;-1.40;99.90;;;;;;4960363;28;20674;-81
2022/04/04 03:56:15;;;;;;;8.85;7.75;;;-1.40;99.90;;;;;;4960265;29;20229;-80
2022/04/04 03:58:43;;;;;;;11.93;8.02;;;-1.50;99.90;;;;;;4960970;29;20568;-81
2022/04/04 04:01:10;;;;;;;12.80;9.10;;;-1.40;99.90;;;;;;4968454;29;20213;-80
2022/04/04 04:03:37;;;;;;;6.43;5.88;;;-1.40;99.90;;;;;;4968778;29;20212;-81
2022/04/04 04:06:12;;;;;;;11.55;10.35;;;-1.40;99.90;;;;;;4980006;28;20288;-81
2022/04/04 04:08:39;;;;;;;11.85;10.65;;;-1.40;99.90;;;;;;4992513;28;20208;-81
2022/04/04 04:11:06;;;;;;;8.55;7.65;;;-1.40;99.90;;;;;;4992466;28;20212;-81
2022/04/04 04:13:33;;;;;;;13.80;9.30;;;-1.50;99.90;;;;;;4992162;28;20208;-80
2022/04/04 04:16:02;;;;;;;8.52;7.70;;;-1.50;99.90;;;;;;4991762;28;20236;-81
2022/04/04 04:18:29;;;;;;;11.23;8.30;;;-1.50;99.90;;;;;;4982268;28;20255;-81
2022/04/04 04:20:56;;;;;;;9.40;8.50;;;-1.50;99.90;;;;;;4963488;29;20209;-81
2022/04/04 04:23:23;;;;;;;12.23;9.20;;;-1.50;99.90;;;;;;4963811;29;20219;-81
2022/04/04 04:25:50;;;;;;;11.82;8.88;;;-1.40;99.90;;;;;;4963727;28;20235;-81
2022/04/04 04:28:18;;;;;;;12.93;8.57;;;-1.50;99.90;;;;;;4967594;29;20211;-80
2022/04/04 04:30:45;;;;;;;10.98;9.65;;;-1.50;99.90;;;;;;4985540;28;20204;-81
2022/04/04 04:33:13;;;;;;;10.15;9.15;;;-1.40;99.90;;;;;;4987308;28;20212;-80
2022/04/04 04:35:40;;;;;;;9.60;8.60;;;-1.50;99.90;;;;;;4971842;28;20221;-81
2022/04/04 04:38:07;;;;;;;9.80;8.80;;;-1.50;99.90;;;;;;4971014;29;20641;-80
2022/04/04 04:40:35;;;;;;;10.30;9.20;;;-1.50;99.90;;;;;;4972692;28;20205;-80
2022/04/04 04:43:02;;;;;;;12.32;10.32;;;-1.50;99.90;;;;;;4973669;29;20209;-80
2022/04/04 04:45:29;;;;;;;14.20;8.20;;;-1.50;99.90;;;;;;4987721;28;20224;-80
2022/04/04 04:47:56;;;;;;;10.75;9.65;;;-1.50;99.90;;;;;;4993366;28;20235;-80
2022/04/04 04:50:26;;;;;;;10.20;8.18;;;-1.50;99.90;;;;;;4993933;28;20204;-81
2022/04/04 04:52:53;;;;;;;10.60;8.32;;;-1.60;99.90;;;;;;4986571;28;20201;-81
2022/04/04 04:55:21;;;;;;;12.43;11.10;;;-1.60;99.90;;;;;;4962035;29;20868;-80
2022/04/04 04:57:48;;;;;;;10.77;9.45;;;-1.70;99.90;;;;;;4966044;28;20216;-81
2022/04/04 05:00:18;;;;;;;11.93;9.57;;;-1.70;99.90;;;;;;4981083;28;20224;-80
2022/04/04 05:02:44;;;;;;;10.60;9.02;;;-1.70;99.90;;;;;;4981370;28;20208;-81
2022/04/04 05:05:11;;;;;;;10.55;9.23;;;-1.70;99.90;;;;;;4981167;28;20232;-80
2022/04/04 05:07:39;;;;;;;11.75;9.10;;;-1.90;99.90;;;;;;4981571;28;20216;-81
2022/04/04 05:10:07;;;;;;;16.20;9.27;;;-2.00;99.90;;;;;;4981315;28;20204;-81
2022/04/04 05:12:33;;;;;;;11.73;9.52;;;-1.90;99.90;;;;;;4981201;28;20219;-81
2022/04/04 05:15:00;;;;;;;15.27;10.80;;;-1.80;99.90;;;;;;4962060;28;20229;-81
2022/04/04 05:17:27;;;;;;;10.75;9.65;;;-1.70;99.90;;;;;;4964799;28;20196;-82
2022/04/04 05:19:53;;;;;;;10.55;8.80;;;-1.80;99.90;;;;;;4961473;28;20225;-81
2022/04/04 05:22:20;;;;;;;12.63;10.30;;;-1.80;99.90;;;;;;4961986;29;20209;-82
2022/04/04 05:24:48;;;;;;;13.10;11.13;;;-1.70;99.90;;;;;;4962412;28;20239;-81
2022/04/04 05:27:16;;;;;;;10.40;9.30;;;-1.70;99.90;;;;;;4962636;28;20210;-81
2022/04/04 05:29:42;;;;;;;15.10;10.80;;;-1.70;99.90;;;;;;4962537;29;20205;-81
2022/04/04 05:32:09;;;;;;;13.95;10.32;;;-1.70;99.90;;;;;;4962101;28;20216;-81
2022/04/04 05:34:38;;;;;;;10.90;9.65;;;-1.80;99.90;;;;;;4961734;28;20216;-81
2022/04/04 05:37:05;;;;;;;14.63;9.98;;;-2.00;99.90;;;;;;4962404;29;20212;-82
2022/04/04 05:39:31;;;;;;;11.35;8.13;;;-1.80;99.90;;;;;;4962350;29;20256;-81
2022/04/04 05:41:59;;;;;;;12.48;9.50;;;-1.80;99.90;;;;;;4962398;29;20209;-81
2022/04/04 05:44:27;;;;;;;12.43;10.13;;;-1.70;99.90;;;;;;4962164;29;20221;-82
2022/04/04 05:46:53;;;;;;;12.57;10.43;;;-1.70;99.90;;;;;;4976182;28;20208;-82
2022/04/04 05:49:20;;;;;;;14.90;9.27;;;-1.70;99.90;;;;;;4981012;28;20204;-81
2022/04/04 05:51:48;;;;;;;9.90;8.88;;;-1.70;99.90;;;;;;4981132;28;20214;-81
2022/04/04 05:54:15;;;;;;;10.60;8.90;;;-1.60;99.90;;;;;;4981395;28;20209;-81
2022/04/04 06:01:56;;;;;;;12.07;8.30;;;-1.80;99.90;;;;;;5038165;28;20230;-82
2022/04/04 06:04:22;;;;;;;14.55;10.20;;;-1.70;99.90;;;;;;5035843;28;20260;-81
2022/04/04 06:06:49;;;;;;;9.95;8.95;;;-1.70;99.90;;;;;;5035781;28;20708;-81
2022/04/04 06:09:16;;;;;;;10.00;7.65;;;-1.80;99.90;;;;;;5021832;28;20214;-81
2022/04/04 06:11:43;;;;;;;10.52;9.48;;;-1.60;99.90;;;;;;5018022;28;20207;-80
2022/04/04 06:14:10;;;;;;;11.82;9.82;;;-1.50;99.90;;;;;;5033044;28;20213;-81
2022/04/04 06:16:36;;;;;;;12.30;11.10;;;-1.40;99.90;;;;;;5033049;28;20226;-81
2022/04/04 06:19:04;;;;;;;12.93;9.77;;;-1.30;99.90;;;;;;5035142;28;20222;-81
2022/04/04 06:21:31;;;;;;;17.50;10.45;;;-1.30;99.90;;;;;;5034593;28;20210;-81
2022/04/04 06:23:58;;;;;;;11.70;8.65;;;-1.10;99.90;;;;;;5034804;28;20668;-81
2022/04/04 06:26:25;;;;;;;14.35;12.20;;;-1.00;99.90;;;;;;5023110;28;20230;-81
2022/04/04 06:28:51;;;;;;;13.63;9.55;;;-0.90;99.90;;;;;;5015738;28;20209;-81
2022/04/04 06:31:18;;;;;;;12.80;10.50;;;-0.80;99.90;;;;;;5031645;28;20629;-81
2022/04/04 06:33:45;;;;;;;14.88;10.65;;;-0.80;99.90;;;;;;5035661;28;20210;-81
2022/04/04 06:36:13;;;;;;;17.25;11.07;;;-0.80;99.90;;;;;;5035643;28;20230;-82
2022/04/04 06:38:40;;;;;;;12.05;9.68;;;-0.60;99.90;;;;;;5035268;28;20202;-82
2022/04/04 06:41:07;;;;;;;9.50;7.78;;;-0.60;99.90;;;;;;5019996;28;20286;-81
2022/04/04 06:43:34;;;;;;;11.88;8.90;;;-0.60;99.90;;;;;;5018521;28;20203;-82
2022/04/04 06:46:01;;;;;;;10.40;9.27;;;-0.80;99.90;;;;;;5027786;28;20255;-81
2022/04/04 06:48:27;;;;;;;8.63;7.80;;;-0.70;99.90;;;;;;5023663;28;20223;-82
2022/04/04 06:50:54;;;;;;;9.65;8.68;;;-0.50;99.90;;;;;;5022403;28;20202;-81
2022/04/04 06:53:23;;;;;;;8.95;7.93;;;-0.60;99.90;;;;;;5028459;28;20246;-82
2022/04/04 06:55:50;;;;;;;11.15;10.05;;;-0.60;99.90;;;;;;5015729;28;20576;-81
2022/04/04 06:58:16;;;;;;;10.25;8.68;;;-0.60;99.90;;;;;;5026136;28;20202;-81
2022/04/04 07:00:45;;;;;;;10.13;8.75;;;-0.60;99.90;;;;;;5023751;28;20590;-81
2022/04/04 07:03:11;;;;;;;10.27;8.48;;;-0.40;99.90;;;;;;5027344;28;20206;-82
2022/04/04 07:05:38;;;;;;;12.05;7.93;;;-0.50;99.90;;;;;;5025982;28;20219;-83
2022/04/04 07:08:06;;;;;;;11.30;8.35;;;-0.30;99.90;;;;;;5021707;28;20199;-80
2022/04/04 07:10:34;;;;;;;13.48;9.32;;;-0.40;99.90;;;;;;5018421;28;20286;-80
2022/04/04 07:13:01;;;;;;;11.27;9.32;;;-0.30;99.90;;;;;;5031432;28;20198;-81
2022/04/04 07:15:28;;;;;;;8.48;6.32;;;-0.20;99.90;;;;;;5038377;28;20236;-82
2022/04/04 07:17:55;;;;;;;9.07;8.18;;;-0.10;99.90;;;;;;5036307;28;20203;-82
2022/04/04 07:20:22;;;;;;;8.95;7.20;;;-0.10;99.90;;;;;;5039700;28;20218;-86
2022/04/04 07:22:48;;;;;;;8.30;6.72;;;0.10;99.90;;;;;;5033726;28;20206;-86
2022/04/04 07:25:15;;;;;;;7.68;6.30;;;0.20;99.90;;;;;;5028239;28;20230;-86
2022/04/04 07:27:45;;;;;;;11.07;7.30;;;0.10;99.90;;;;;;5014497;28;20199;-86
2022/04/04 07:30:14;;;;;;;6.97;6.30;;;0.20;99.90;;;;;;5024012;28;20206;-86
2022/04/04 07:32:42;;;;;;;6.05;5.55;;;0.40;99.90;;;;;;5036053;28;20217;-85
2022/04/04 07:35:11;;;;;;;6.45;5.90;;;0.40;99.90;;;;;;5023563;28;20719;-82
2022/04/04 07:37:38;;;;;;;7.15;6.30;;;0.50;99.90;;;;;;5013712;28;20249;-83
2022/04/04 07:40:06;;;;;;;5.68;5.10;;;0.50;99.90;;;;;;5013156;28;20238;-83
2022/04/04 07:42:34;;;;;;;6.30;5.70;;;0.60;99.90;;;;;;5016705;28;20218;-83
2022/04/04 07:45:02;;;;;;;8.75;5.72;;;0.80;99.90;;;;;;5018473;28;20234;-84
2022/04/04 07:47:29;;;;;;;7.85;7.15;;;0.90;99.90;;;;;;5018295;28;20297;-81
2022/04/04 07:49:56;;;;;;;8.27;7.47;;;1.00;99.90;;;;;;5016029;28;20214;-81
2022/04/04 07:52:23;;;;;;;8.82;7.35;;;1.10;99.90;;;;;;5016288;28;20191;-81
2022/04/04 07:54:50;;;;;;;6.85;6.13;;;1.10;99.90;;;;;;5021046;28;20219;-82
2022/04/04 07:57:17;;;;;;;8.55;6.60;;;1.20;99.90;;;;;;5019043;28;20211;-83
2022/04/04 07:59:44;;;;;;;8.93;7.13;;;1.30;99.90;;;;;;5020979;28;20341;-81
2022/04/04 08:02:12;;;;;;;6.55;6.03;;;1.40;99.90;;;;;;5035053;28;20221;-79
2022/04/04 08:04:39;;;;;;;9.38;7.18;;;1.40;99.90;;;;;;5031027;28;20198;-79
2022/04/04 08:07:06;;;;;;;7.18;6.47;;;1.60;99.90;;;;;;5036282;28;20207;-80
2022/04/04 08:09:32;;;;;;;5.50;4.97;;;1.70;99.80;;;;;;5035253;28;20202;-81
2022/04/04 08:11:59;;;;;;;4.75;4.43;;;1.70;99.10;;;;;;5035832;28;20206;-82
2022/04/04 08:14:26;;;;;;;7.35;5.90;;;1.80;98.60;;;;;;5026166;28;20654;-83
2022/04/04 08:16:53;;;;;;;6.47;5.88;;;1.80;98.00;;;;;;5043293;28;20207;-83
2022/04/04 08:19:21;;;;;;;5.95;5.35;;;1.90;98.00;;;;;;5020134;28;20227;-81
2022/04/04 08:21:48;;;;;;;6.15;4.80;;;2.00;97.90;;;;;;5017734;28;20203;-82
2022/04/04 08:24:15;;;;;;;9.77;6.20;;;2.10;97.30;;;;;;5017785;28;20219;-82
2022/04/04 08:26:43;;;;;;;5.13;4.70;;;2.20;97.40;;;;;;5018555;28;20231;-84
2022/04/04 08:29:09;;;;;;;6.07;5.47;;;2.20;96.40;;;;;;5027990;28;20205;-84
2022/04/04 08:31:38;;;;;;;7.07;5.50;;;2.30;96.60;;;;;;5056265;28;20208;-83
2022/04/04 08:34:05;;;;;;;6.63;6.03;;;2.30;96.00;;;;;;5018133;28;20278;-84
2022/04/04 08:36:33;;;;;;;7.30;6.53;;;2.50;96.60;;;;;;5017511;28;20234;-84
2022/04/04 08:39:00;;;;;;;7.03;6.35;;;2.50;96.50;;;;;;5031601;28;20214;-83
2022/04/04 08:41:30;;;;;;;6.45;5.75;;;2.60;96.10;;;;;;5037481;28;20214;-85
2022/04/04 08:44:01;;;;;;;6.75;6.15;;;2.80;95.50;;;;;;5034251;28;20214;-85
2022/04/04 08:46:28;;;;;;;7.53;5.80;;;2.80;96.10;;;;;;5041033;28;20255;-86
2022/04/04 08:48:58;;;;;;;7.25;6.05;;;2.90;95.90;;;;;;5038375;28;20270;-85
2022/04/04 08:51:25;;;;;;;6.78;6.18;;;3.00;95.30;;;;;;5036683;28;20199;-83
2022/04/04 08:53:55;;;;;;;9.18;7.35;;;3.10;95.50;;;;;;5038160;28;20682;-88
2022/04/04 08:56:23;;;;;;;7.00;5.85;;;3.20;94.90;;;;;;5040488;28;20282;-86
2022/04/04 08:58:50;;;;;;;8.40;7.10;;;3.20;94.40;;;;;;5031839;28;20203;-86
2022/04/04 09:01:18;;;;;;;7.78;6.97;;;3.30;94.40;;;;;;5031669;28;20231;-83
2022/04/04 09:03:45;;;;;;;8.65;7.60;;;3.30;94.10;;;;;;5048672;28;20205;-83
2022/04/04 09:06:11;;;;;;;8.07;7.07;;;3.40;93.50;;;;;;5041053;28;20212;-83
2022/04/04 09:08:48;;;;;;;6.97;6.28;;;3.40;92.50;;;;;;5017431;28;20676;-84
2022/04/04 09:11:17;;;;;;;6.22;5.18;;;3.50;92.50;;;;;;5017886;28;20208;-85
2022/04/04 09:13:44;;;;;;;8.25;7.40;;;3.60;91.70;;;;;;5023043;28;20218;-83
2022/04/04 09:16:11;;;;;;;6.97;5.68;;;3.60;91.90;;;;;;5021405;28;20612;-83
2022/04/04 09:18:46;;;;;;;6.68;6.18;;;3.70;92.20;;;;;;5020882;28;20214;-86
2022/04/04 09:21:14;;;;;;;6.03;5.50;;;3.70;91.00;;;;;;5017213;28;20756;-83
2022/04/04 09:23:55;;;;;;;7.43;6.78;;;3.70;89.50;;;;;;5016761;28;20232;-84
2022/04/04 09:26:31;;;;;;;6.70;6.15;;;3.80;90.20;;;;;;5020163;28;20243;-86
2022/04/04 09:29:16;;;;;;;6.95;5.35;;;3.80;91.00;;;;;;5042471;28;20197;-87
2022/04/04 09:31:54;;;;;;;9.70;8.70;;;3.90;91.30;;;;;;5025012;28;20212;-86
2022/04/04 09:34:21;;;;;;;6.47;5.90;;;3.90;92.20;;;;;;5041330;28;20190;-83
2022/04/04 09:36:49;;;;;;;7.78;7.13;;;4.00;88.90;;;;;;5041415;28;20229;-84
2022/04/04 09:39:17;;;;;;;5.82;5.32;;;4.00;87.20;;;;;;5026624;28;20199;-84
2022/04/04 09:41:45;;;;;;;8.00;7.20;;;4.00;83.90;;;;;;5036912;28;20216;-83
2022/04/04 09:44:12;;;;;;;7.35;6.05;;;3.90;83.20;;;;;;5031090;28;20267;-82
2022/04/04 09:46:41;;;;;;;5.78;5.30;;;3.90;82.10;;;;;;5024667;28;20218;-82
2022/04/04 09:49:13;;;;;;;6.70;6.20;;;3.90;83.20;;;;;;5037025;28;20216;-81
2022/04/04 09:51:42;;;;;;;5.22;4.82;;;4.00;84.80;;;;;;5017724;28;20767;-79
2022/04/04 09:54:11;;;;;;;6.65;6.18;;;4.00;82.00;;;;;;5032161;28;20212;-79
2022/04/04 09:56:38;;;;;;;7.45;6.38;;;4.10;85.70;;;;;;5015688;28;20231;-80
2022/04/04 09:59:07;;;;;;;6.80;5.80;;;4.00;87.00;;;;;;5016255;28;20212;-80
2022/04/04 10:01:34;;;;;;;7.32;5.75;;;4.10;86.70;;;;;;5015647;28;20232;-80
2022/04/04 10:04:01;;;;;;;7.80;7.22;;;4.20;87.30;;;;;;5015201;28;20214;-80
2022/04/04 10:06:29;;;;;;;6.88;6.25;;;4.30;90.10;;;;;;5015367;28;20231;-80
2022/04/04 10:08:57;;;;;;;6.88;5.03;;;4.40;88.70;;;;;;5015890;28;20684;-80
2022/04/04 10:11:25;;;;;;;7.65;6.95;;;4.40;88.20;;;;;;5015574;28;20211;-80
2022/04/04 10:13:52;;;;;;;6.68;6.13;;;4.40;90.00;;;;;;5015593;28;20210;-80
2022/04/04 10:16:22;;;;;;;7.70;6.55;;;4.50;88.60;;;;;;5015522;28;20253;-80
2022/04/04 10:18:49;;;;;;;5.15;4.70;;;4.60;90.10;;;;;;5015211;28;20621;-81
2022/04/04 10:21:16;;;;;;;6.03;5.45;;;4.60;90.60;;;;;;5015436;28;20223;-80
2022/04/04 10:23:44;;;;;;;6.40;5.85;;;4.80;90.30;;;;;;5015798;28;20298;-80
2022/04/04 10:26:14;;;;;;;7.40;6.75;;;4.90;90.40;;;;;;5015681;28;20230;-81
2022/04/04 10:28:43;;;;;;;7.15;5.70;;;5.10;90.80;;;;;;5015930;28;20210;-82
2022/04/04 10:31:15;;;;;;;8.13;7.38;;;5.30;90.30;;;;;;5015604;28;20206;-81
2022/04/04 10:33:43;;;;;;;8.43;7.63;;;5.40;89.60;;;;;;5016208;28;20302;-81
2022/04/04 10:36:11;;;;;;;6.55;6.05;;;5.60;89.70;;;;;;5017141;28;20237;-81
2022/04/04 10:38:40;;;;;;;6.80;6.20;;;5.80;89.00;;;;;;5017714;28;20210;-82
2022/04/04 10:41:09;;;;;;;8.23;6.18;;;5.80;85.40;;;;;;5016675;28;20247;-81
2022/04/04 10:43:38;;;;;;;8.07;7.22;;;5.60;86.00;;;;;;5016952;28;20210;-82
2022/04/04 10:46:09;;;;;;;7.22;6.25;;;5.60;88.60;;;;;;5017160;28;20230;-81
2022/04/04 10:48:38;;;;;;;6.28;5.65;;;5.60;88.60;;;;;;5017375;28;20286;-81
2022/04/04 10:51:17;;;;;;;6.15;5.72;;;5.60;88.70;;;;;;5016442;28;20203;-82
2022/04/04 10:53:47;;;;;;;7.72;5.72;;;5.70;89.30;;;;;;5015546;28;20214;-82
2022/04/04 10:56:19;;;;;;;5.78;5.38;;;5.90;89.40;;;;;;5015393;28;20234;-81
2022/04/04 10:58:46;;;;;;;7.07;6.43;;;5.90;84.50;;;;;;5015518;28;20571;-82
2022/04/04 11:01:16;;;;;;;5.60;5.10;;;6.00;84.70;;;;;;5014874;28;20233;-81
2022/04/04 11:03:56;;;;;;;5.70;5.28;;;6.00;82.90;;;;;;5014583;28;20222;-81
2022/04/04 11:09:26;;;;;;;5.85;5.35;;;6.00;81.00;;;;;;5014779;28;20191;-81
2022/04/04 11:11:55;;;;;;;6.82;6.32;;;6.30;82.30;;;;;;5014742;28;20215;-81
2022/04/04 11:14:46;;;;;;;6.18;5.57;;;6.60;81.30;;;;;;5014765;28;20257;-82
2022/04/04 11:17:30;;;;;;;6.00;5.50;;;7.00;82.60;;;;;;5017269;28;20261;-81
2022/04/04 11:20:02;;;;;;;5.82;4.93;;;7.40;84.60;;;;;;5018735;28;20195;-81
2022/04/04 11:22:31;;;;;;;6.05;5.65;;;7.80;81.30;;;;;;5018735;28;20199;-82
2022/04/04 11:25:03;;;;;;;5.32;4.93;;;8.10;79.80;;;;;;5018826;28;20227;-81
2022/04/04 11:27:30;;;;;;;5.07;4.57;;;8.30;79.90;;;;;;5018246;28;20225;-81
2022/04/04 11:29:59;;;;;;;5.35;4.85;;;8.30;77.00;;;;;;5018698;28;20214;-82
2022/04/04 11:32:28;;;;;;;6.18;5.78;;;8.50;75.90;;;;;;5018035;28;20211;-81
2022/04/04 11:34:57;;;;;;;5.22;4.82;;;8.70;77.20;;;;;;5018371;28;20223;-81
2022/04/04 11:37:26;;;;;;;4.53;4.20;;;8.20;74.70;;;;;;5017971;28;20206;-82
2022/04/04 11:40:03;;;;;;;5.60;5.10;;;7.40;73.10;;;;;;5018805;28;20210;-81
2022/04/04 11:42:30;;;;;;;5.10;4.70;;;7.40;77.40;;;;;;5018028;28;20213;-81
2022/04/04 11:44:58;;;;;;;4.30;4.00;;;7.60;76.80;;;;;;5018202;28;20247;-80
2022/04/04 11:47:25;;;;;;;5.55;5.05;;;7.70;76.00;;;;;;5017914;28;20237;-81
2022/04/04 11:49:54;;;;;;;5.03;4.47;;;7.90;75.70;;;;;;5018367;28;20673;-81
2022/04/04 11:52:24;;;;;;;6.35;5.70;;;8.40;75.10;;;;;;5018150;28;20311;-82
2022/04/04 11:54:51;;;;;;;4.53;4.13;;;8.10;73.20;;;;;;5018331;28;20237;-81
2022/04/04 11:57:21;;;;;;;5.35;4.95;;;8.30;77.00;;;;;;5018528;28;20273;-82
2022/04/04 11:59:49;;;;;;;5.80;5.30;;;8.70;77.50;;;;;;5018377;28;20215;-82
2022/04/04 12:02:17;;;;;;;4.88;4.47;;;9.10;75.80;;;;;;5017949;28;20231;-82
2022/04/04 12:04:45;;;;;;;5.75;5.25;;;9.40;73.50;;;;;;5018661;28;20203;-82
2022/04/04 12:07:12;;;;;;;4.95;4.55;;;9.60;71.20;;;;;;5018470;28;20218;-81
2022/04/04 12:09:40;;;;;;;5.10;4.80;;;9.60;66.60;;;;;;5018242;28;20222;-83
2022/04/04 12:12:08;;;;;;;5.40;4.93;;;9.50;67.30;;;;;;5017889;28;20238;-82
2022/04/04 12:14:38;;;;;;;5.50;5.10;;;9.60;70.80;;;;;;5018431;28;20207;-82
2022/04/04 12:17:05;;;;;;;5.82;5.32;;;9.70;70.60;;;;;;5018843;28;20211;-82
2022/04/04 12:19:32;;;;;;;4.65;4.35;;;10.20;72.40;;;;;;5018415;28;20208;-82
2022/04/04 12:21:59;;;;;;;4.60;4.20;;;10.30;67.50;;;;;;5018300;28;20227;-81
2022/04/04 12:27:13;;;;;;;7.45;6.90;;;10.30;65.50;;;;;;5019592;28;20226;-82
2022/04/04 12:29:43;;;;;;;6.38;5.80;;;10.30;67.40;;;;;;5018192;28;20310;-82
2022/04/04 12:32:15;;;;;;;6.95;6.45;;;10.40;70.00;;;;;;5018264;28;20207;-83
2022/04/04 12:34:55;;;;;;;9.43;7.13;;;10.70;71.10;;;;;;5017870;28;20235;-82
2022/04/04 12:37:35;;;;;;;7.80;7.20;;;10.90;70.40;;;;;;5018044;28;20258;-82
2022/04/04 12:40:16;;;;;;;5.73;5.23;;;11.10;69.90;;;;;;5017797;28;20949;-82
2022/04/04 12:42:44;;;;;;;5.40;4.90;;;11.10;67.00;;;;;;5017287;28;20463;-81
2022/04/04 12:45:12;;;;;;;6.30;5.70;;;11.00;65.80;;;;;;5017462;28;20472;-81
2022/04/04 12:47:58;;;;;;;7.67;7.07;;;11.00;66.40;;;;;;5017954;28;20490;-82
2022/04/04 12:50:26;;;;;;;5.75;5.35;;;10.90;63.80;;;;;;5017153;28;20447;-82
2022/04/04 12:52:58;;;;;;;6.30;5.65;;;10.80;63.70;;;;;;5017441;28;20211;-80
2022/04/04 12:55:25;;;;;;;6.10;5.60;;;10.50;65.20;;;;;;5016406;28;20241;-80
2022/04/04 12:57:51;;;;;;;7.05;6.35;;;10.10;64.30;;;;;;5016466;28;20810;-80
2022/04/04 13:00:28;;;;;;;7.97;6.85;;;10.10;65.90;;;;;;5016564;28;20222;-81
2022/04/04 13:02:55;;;;;;;5.60;5.15;;;10.40;66.90;;;;;;5017140;28;20211;-80
2022/04/04 13:05:25;;;;;;;9.55;6.53;;;10.50;65.40;;;;;;5016234;28;20227;-81